Rio Vista Municipal (O88)
Rio Vista, CA
Field Elevation: 23
Lat: 38°11.60N  Long: 121°42.22W
CTAF/Unicom Freq: 122.7250
   
     For Weather-by-Phone, call (707) 374-5396
Weather Advisories
8/28/2014 23:09 Z
Altimeter 29.91" Hg
Wind 230° @ 7 KT
Gusts --
Visibility 10 SM
Ceiling CLR
Temperature 35° C (95° F)
Dewpoint 9° C (48° F)
Relative Humidity 21%
Density Altitude 2,300 feet
Condensation Altitude 12,800 feet
Heat Index 33° C (91° F)
  Wind and Runways
Indicated Runway = 25
History
 
 
More Info
All DigiWx sites map
NOAA Forecast
 
Airport IQ 5010
(DUC) Stack Farm
(CA37) Dominican
 
about DigiWx
 
FAA Disclaimer: The data displayed is for advisory purposes only and is not to be used for flight planning or operations. For official data, please call (707) 374-5396 to hear the current automated AWOS voice message.
  METAR O88 282309Z AUTO 23007KT 10SM CLR 35/09 A2991